sensor_id;sensor_type;location;lat;lon;timestamp;P1;durP1;ratioP1;P2;durP2;ratioP2
11303;SDS011;5707;49.588;12.148;2023-03-22T00:01:06;5.72;;;5.22;;
11303;SDS011;5707;49.588;12.148;2023-03-22T00:03:37;3.95;;;3.65;;
11303;SDS011;5707;49.588;12.148;2023-03-22T00:06:03;2.58;;;2.38;;
11303;SDS011;5707;49.588;12.148;2023-03-22T00:08:28;3.33;;;3.13;;
11303;SDS011;5707;49.588;12.148;2023-03-22T00:10:54;2.80;;;2.42;;
11303;SDS011;5707;49.588;12.148;2023-03-22T00:13:20;2.60;;;2.40;;
11303;SDS011;5707;49.588;12.148;2023-03-22T00:15:45;2.70;;;2.50;;
11303;SDS011;5707;49.588;12.148;2023-03-22T00:18:13;2.67;;;2.47;;
11303;SDS011;5707;49.588;12.148;2023-03-22T00:20:45;2.90;;;2.65;;
11303;SDS011;5707;49.588;12.148;2023-03-22T00:23:12;3.45;;;3.00;;
11303;SDS011;5707;49.588;12.148;2023-03-22T00:25:37;2.60;;;2.40;;
11303;SDS011;5707;49.588;12.148;2023-03-22T00:28:03;2.70;;;2.50;;
11303;SDS011;5707;49.588;12.148;2023-03-22T00:30:29;3.83;;;2.13;;
11303;SDS011;5707;49.588;12.148;2023-03-22T00:32:54;3.28;;;2.85;;
11303;SDS011;5707;49.588;12.148;2023-03-22T00:35:20;2.65;;;2.33;;
11303;SDS011;5707;49.588;12.148;2023-03-22T00:37:45;3.60;;;2.40;;
11303;SDS011;5707;49.588;12.148;2023-03-22T00:40:11;2.85;;;2.42;;
11303;SDS011;5707;49.588;12.148;2023-03-22T00:42:38;2.42;;;2.22;;
11303;SDS011;5707;49.588;12.148;2023-03-22T00:45:05;2.92;;;2.40;;
11303;SDS011;5707;49.588;12.148;2023-03-22T00:47:33;2.22;;;2.13;;
11303;SDS011;5707;49.588;12.148;2023-03-22T00:49:59;2.83;;;2.53;;
11303;SDS011;5707;49.588;12.148;2023-03-22T00:52:25;2.40;;;2.30;;
11303;SDS011;5707;49.588;12.148;2023-03-22T00:54:50;2.15;;;2.05;;
11303;SDS011;5707;49.588;12.148;2023-03-22T00:57:16;2.53;;;2.33;;
11303;SDS011;5707;49.588;12.148;2023-03-22T00:59:42;2.30;;;2.13;;
11303;SDS011;5707;49.588;12.148;2023-03-22T01:02:08;2.58;;;2.03;;
11303;SDS011;5707;49.588;12.148;2023-03-22T01:04:37;2.75;;;2.55;;
11303;SDS011;5707;49.588;12.148;2023-03-22T01:07:04;2.97;;;2.15;;
11303;SDS011;5707;49.588;12.148;2023-03-22T01:09:32;2.65;;;2.45;;
11303;SDS011;5707;49.588;12.148;2023-03-22T01:11:58;2.60;;;2.40;;
11303;SDS011;5707;49.588;12.148;2023-03-22T01:14:25;2.17;;;1.98;;
11303;SDS011;5707;49.588;12.148;2023-03-22T01:16:51;2.40;;;2.20;;
11303;SDS011;5707;49.588;12.148;2023-03-22T01:19:21;2.67;;;2.47;;
11303;SDS011;5707;49.588;12.148;2023-03-22T01:21:51;2.58;;;2.38;;
11303;SDS011;5707;49.588;12.148;2023-03-22T01:24:17;2.72;;;2.53;;
11303;SDS011;5707;49.588;12.148;2023-03-22T01:26:42;7.00;;;2.60;;
11303;SDS011;5707;49.588;12.148;2023-03-22T01:29:08;2.95;;;2.42;;
11303;SDS011;5707;49.588;12.148;2023-03-22T01:31:34;3.00;;;2.60;;
11303;SDS011;5707;49.588;12.148;2023-03-22T01:34:00;3.45;;;2.45;;
11303;SDS011;5707;49.588;12.148;2023-03-22T01:36:25;2.63;;;2.20;;
11303;SDS011;5707;49.588;12.148;2023-03-22T01:38:51;3.85;;;2.38;;
11303;SDS011;5707;49.588;12.148;2023-03-22T01:41:18;3.47;;;2.13;;
11303;SDS011;5707;49.588;12.148;2023-03-22T01:43:43;2.60;;;2.38;;
11303;SDS011;5707;49.588;12.148;2023-03-22T01:46:09;2.50;;;2.38;;
11303;SDS011;5707;49.588;12.148;2023-03-22T01:48:39;2.42;;;2.25;;
11303;SDS011;5707;49.588;12.148;2023-03-22T01:51:13;4.10;;;2.38;;
11303;SDS011;5707;49.588;12.148;2023-03-22T01:53:44;5.65;;;2.78;;
11303;SDS011;5707;49.588;12.148;2023-03-22T01:56:14;3.03;;;2.60;;
11303;SDS011;5707;49.588;12.148;2023-03-22T01:58:43;2.97;;;2.42;;
11303;SDS011;5707;49.588;12.148;2023-03-22T02:01:09;2.47;;;2.28;;
11303;SDS011;5707;49.588;12.148;2023-03-22T02:06:31;2.70;;;2.50;;
11303;SDS011;5707;49.588;12.148;2023-03-22T02:09:02;3.30;;;2.97;;
11303;SDS011;5707;49.588;12.148;2023-03-22T02:17:14;3.28;;;3.03;;
11303;SDS011;5707;49.588;12.148;2023-03-22T02:40:02;2.38;;;2.10;;
11303;SDS011;5707;49.588;12.148;2023-03-22T02:42:41;1.55;;;1.45;;
11303;SDS011;5707;49.588;12.148;2023-03-22T02:48:05;1.73;;;1.60;;
11303;SDS011;5707;49.588;12.148;2023-03-22T02:50:42;3.25;;;2.22;;
11303;SDS011;5707;49.588;12.148;2023-03-22T02:55:55;4.15;;;2.40;;
11303;SDS011;5707;49.588;12.148;2023-03-22T02:58:33;2.95;;;2.53;;
11303;SDS011;5707;49.588;12.148;2023-03-22T03:01:04;2.50;;;2.30;;
11303;SDS011;5707;49.588;12.148;2023-03-22T03:03:32;5.28;;;2.08;;
11303;SDS011;5707;49.588;12.148;2023-03-22T03:06:03;2.25;;;2.15;;
11303;SDS011;5707;49.588;12.148;2023-03-22T03:08:51;2.50;;;2.30;;
11303;SDS011;5707;49.588;12.148;2023-03-22T03:11:18;2.38;;;1.90;;
11303;SDS011;5707;49.588;12.148;2023-03-22T03:13:46;2.28;;;2.10;;
11303;SDS011;5707;49.588;12.148;2023-03-22T03:16:13;2.28;;;2.08;;
11303;SDS011;5707;49.588;12.148;2023-03-22T03:18:53;2.78;;;2.10;;
11303;SDS011;5707;49.588;12.148;2023-03-22T03:30:12;7.75;;;4.32;;
11303;SDS011;5707;49.588;12.148;2023-03-22T03:32:06;4.10;;;3.80;;
11303;SDS011;5707;49.588;12.148;2023-03-22T03:37:27;3.45;;;2.78;;
11303;SDS011;5707;49.588;12.148;2023-03-22T03:40:08;2.95;;;2.70;;
11303;SDS011;5707;49.588;12.148;2023-03-22T03:42:37;3.28;;;2.80;;
11303;SDS011;5707;49.588;12.148;2023-03-22T03:45:06;2.63;;;2.38;;
11303;SDS011;5707;49.588;12.148;2023-03-22T03:47:33;2.85;;;2.53;;
11303;SDS011;5707;49.588;12.148;2023-03-22T03:50:01;5.32;;;2.40;;
11303;SDS011;5707;49.588;12.148;2023-03-22T03:52:28;4.40;;;2.13;;
11303;SDS011;5707;49.588;12.148;2023-03-22T03:54:53;1.52;;;1.25;;
11303;SDS011;5707;49.588;12.148;2023-03-22T03:57:19;1.67;;;1.58;;
11303;SDS011;5707;49.588;12.148;2023-03-22T03:59:45;1.83;;;1.73;;
11303;SDS011;5707;49.588;12.148;2023-03-22T04:02:11;2.10;;;2.00;;
11303;SDS011;5707;49.588;12.148;2023-03-22T04:04:37;4.22;;;2.78;;
11303;SDS011;5707;49.588;12.148;2023-03-22T04:07:03;2.85;;;2.65;;
11303;SDS011;5707;49.588;12.148;2023-03-22T04:09:32;4.00;;;2.70;;
11303;SDS011;5707;49.588;12.148;2023-03-22T04:11:59;2.85;;;2.65;;
11303;SDS011;5707;49.588;12.148;2023-03-22T04:14:25;2.85;;;2.65;;
11303;SDS011;5707;49.588;12.148;2023-03-22T04:16:51;3.22;;;2.90;;
11303;SDS011;5707;49.588;12.148;2023-03-22T04:19:17;3.05;;;2.85;;
11303;SDS011;5707;49.588;12.148;2023-03-22T04:21:43;3.28;;;2.75;;
11303;SDS011;5707;49.588;12.148;2023-03-22T04:24:10;2.58;;;2.38;;
11303;SDS011;5707;49.588;12.148;2023-03-22T04:26:36;2.42;;;2.25;;
11303;SDS011;5707;49.588;12.148;2023-03-22T04:29:02;2.45;;;2.25;;
11303;SDS011;5707;49.588;12.148;2023-03-22T04:31:28;1.95;;;1.75;;
11303;SDS011;5707;49.588;12.148;2023-03-22T04:33:55;1.65;;;1.33;;
11303;SDS011;5707;49.588;12.148;2023-03-22T04:36:21;1.20;;;1.20;;
11303;SDS011;5707;49.588;12.148;2023-03-22T04:38:48;2.58;;;1.50;;
11303;SDS011;5707;49.588;12.148;2023-03-22T04:41:14;1.80;;;1.70;;
11303;SDS011;5707;49.588;12.148;2023-03-22T04:43:40;1.98;;;1.83;;
11303;SDS011;5707;49.588;12.148;2023-03-22T04:46:07;4.47;;;1.92;;
11303;SDS011;5707;49.588;12.148;2023-03-22T04:48:34;2.50;;;1.75;;
11303;SDS011;5707;49.588;12.148;2023-03-22T04:51:02;2.17;;;1.98;;
11303;SDS011;5707;49.588;12.148;2023-03-22T04:53:29;2.40;;;2.08;;
11303;SDS011;5707;49.588;12.148;2023-03-22T04:55:55;2.03;;;1.65;;
11303;SDS011;5707;49.588;12.148;2023-03-22T04:58:21;1.80;;;1.70;;
11303;SDS011;5707;49.588;12.148;2023-03-22T05:00:48;2.13;;;1.90;;
11303;SDS011;5707;49.588;12.148;2023-03-22T05:03:17;2.65;;;1.88;;
11303;SDS011;5707;49.588;12.148;2023-03-22T05:05:51;2.10;;;1.90;;
11303;SDS011;5707;49.588;12.148;2023-03-22T05:08:22;2.50;;;2.30;;
11303;SDS011;5707;49.588;12.148;2023-03-22T05:10:52;2.72;;;2.10;;
11303;SDS011;5707;49.588;12.148;2023-03-22T05:13:19;3.60;;;2.05;;
11303;SDS011;5707;49.588;12.148;2023-03-22T05:15:45;3.10;;;1.60;;
11303;SDS011;5707;49.588;12.148;2023-03-22T05:18:13;1.83;;;1.65;;
11303;SDS011;5707;49.588;12.148;2023-03-22T05:20:40;1.80;;;1.70;;
11303;SDS011;5707;49.588;12.148;2023-03-22T05:23:06;4.25;;;2.00;;
11303;SDS011;5707;49.588;12.148;2023-03-22T05:25:33;2.33;;;2.13;;
11303;SDS011;5707;49.588;12.148;2023-03-22T05:28:00;2.15;;;2.05;;
11303;SDS011;5707;49.588;12.148;2023-03-22T05:30:26;3.65;;;2.70;;
11303;SDS011;5707;49.588;12.148;2023-03-22T05:32:56;5.43;;;2.70;;
11303;SDS011;5707;49.588;12.148;2023-03-22T05:35:24;2.28;;;2.15;;
11303;SDS011;5707;49.588;12.148;2023-03-22T05:37:50;1.88;;;1.77;;
11303;SDS011;5707;49.588;12.148;2023-03-22T05:40:16;2.10;;;1.90;;
11303;SDS011;5707;49.588;12.148;2023-03-22T05:42:42;3.53;;;2.33;;
11303;SDS011;5707;49.588;12.148;2023-03-22T05:45:08;2.90;;;2.70;;
11303;SDS011;5707;49.588;12.148;2023-03-22T05:47:34;2.65;;;2.42;;
11303;SDS011;5707;49.588;12.148;2023-03-22T05:50:01;6.10;;;2.88;;
11303;SDS011;5707;49.588;12.148;2023-03-22T05:52:27;2.72;;;2.53;;
11303;SDS011;5707;49.588;12.148;2023-03-22T05:54:52;3.08;;;2.83;;
11303;SDS011;5707;49.588;12.148;2023-03-22T05:57:18;3.78;;;3.42;;
11303;SDS011;5707;49.588;12.148;2023-03-22T05:59:43;2.60;;;2.40;;
11303;SDS011;5707;49.588;12.148;2023-03-22T06:02:09;2.13;;;2.03;;
11303;SDS011;5707;49.588;12.148;2023-03-22T06:04:35;1.90;;;1.80;;
11303;SDS011;5707;49.588;12.148;2023-03-22T06:07:00;4.00;;;3.10;;
11303;SDS011;5707;49.588;12.148;2023-03-22T06:09:26;2.92;;;2.72;;
11303;SDS011;5707;49.588;12.148;2023-03-22T06:11:51;3.08;;;2.72;;
11303;SDS011;5707;49.588;12.148;2023-03-22T06:14:17;3.28;;;2.97;;
11303;SDS011;5707;49.588;12.148;2023-03-22T06:16:42;4.22;;;3.63;;
11303;SDS011;5707;49.588;12.148;2023-03-22T06:19:08;5.40;;;3.47;;
11303;SDS011;5707;49.588;12.148;2023-03-22T06:21:34;3.80;;;3.50;;
11303;SDS011;5707;49.588;12.148;2023-03-22T06:23:59;4.50;;;2.72;;
11303;SDS011;5707;49.588;12.148;2023-03-22T06:26:25;3.63;;;2.63;;
11303;SDS011;5707;49.588;12.148;2023-03-22T06:28:50;2.53;;;2.42;;
11303;SDS011;5707;49.588;12.148;2023-03-22T06:31:16;2.67;;;2.47;;
11303;SDS011;5707;49.588;12.148;2023-03-22T06:33:41;3.25;;;2.80;;
11303;SDS011;5707;49.588;12.148;2023-03-22T06:36:09;3.25;;;3.00;;
11303;SDS011;5707;49.588;12.148;2023-03-22T06:38:34;3.78;;;3.47;;
11303;SDS011;5707;49.588;12.148;2023-03-22T06:41:00;3.95;;;3.50;;
11303;SDS011;5707;49.588;12.148;2023-03-22T06:43:26;3.70;;;3.50;;
11303;SDS011;5707;49.588;12.148;2023-03-22T06:45:51;3.55;;;3.25;;
11303;SDS011;5707;49.588;12.148;2023-03-22T06:48:17;3.80;;;3.50;;
11303;SDS011;5707;49.588;12.148;2023-03-22T06:50:43;4.30;;;4.00;;
11303;SDS011;5707;49.588;12.148;2023-03-22T06:53:08;4.45;;;3.45;;
11303;SDS011;5707;49.588;12.148;2023-03-22T06:55:34;4.18;;;3.88;;
11303;SDS011;5707;49.588;12.148;2023-03-22T06:58:00;4.75;;;4.43;;
11303;SDS011;5707;49.588;12.148;2023-03-22T07:00:26;5.72;;;5.25;;
11303;SDS011;5707;49.588;12.148;2023-03-22T07:02:52;4.75;;;4.03;;
11303;SDS011;5707;49.588;12.148;2023-03-22T07:05:17;4.53;;;4.22;;
11303;SDS011;5707;49.588;12.148;2023-03-22T07:07:43;5.20;;;4.80;;
11303;SDS011;5707;49.588;12.148;2023-03-22T07:10:10;5.20;;;4.47;;
11303;SDS011;5707;49.588;12.148;2023-03-22T07:12:36;4.88;;;4.47;;
11303;SDS011;5707;49.588;12.148;2023-03-22T07:15:02;5.20;;;4.72;;
11303;SDS011;5707;49.588;12.148;2023-03-22T07:17:28;5.85;;;5.25;;
11303;SDS011;5707;49.588;12.148;2023-03-22T07:19:53;7.80;;;5.65;;
11303;SDS011;5707;49.588;12.148;2023-03-22T07:22:19;6.95;;;5.65;;
11303;SDS011;5707;49.588;12.148;2023-03-22T07:24:48;8.25;;;7.65;;
11303;SDS011;5707;49.588;12.148;2023-03-22T07:27:15;6.47;;;6.07;;
11303;SDS011;5707;49.588;12.148;2023-03-22T07:29:40;5.40;;;4.90;;
11303;SDS011;5707;49.588;12.148;2023-03-22T07:32:06;5.25;;;4.85;;
11303;SDS011;5707;49.588;12.148;2023-03-22T07:34:31;5.50;;;5.10;;
11303;SDS011;5707;49.588;12.148;2023-03-22T07:36:57;6.00;;;5.45;;
11303;SDS011;5707;49.588;12.148;2023-03-22T07:39:23;5.90;;;5.50;;
11303;SDS011;5707;49.588;12.148;2023-03-22T07:41:49;5.80;;;5.40;;
11303;SDS011;5707;49.588;12.148;2023-03-22T07:44:15;5.82;;;5.43;;
11303;SDS011;5707;49.588;12.148;2023-03-22T07:46:41;6.53;;;5.82;;
11303;SDS011;5707;49.588;12.148;2023-03-22T07:49:07;6.47;;;5.97;;
11303;SDS011;5707;49.588;12.148;2023-03-22T07:51:32;7.15;;;6.00;;
11303;SDS011;5707;49.588;12.148;2023-03-22T07:53:59;6.68;;;6.10;;
11303;SDS011;5707;49.588;12.148;2023-03-22T07:56:25;6.57;;;6.03;;
11303;SDS011;5707;49.588;12.148;2023-03-22T07:58:50;6.57;;;6.05;;
11303;SDS011;5707;49.588;12.148;2023-03-22T08:01:16;6.00;;;5.60;;
11303;SDS011;5707;49.588;12.148;2023-03-22T08:03:42;6.55;;;6.05;;
11303;SDS011;5707;49.588;12.148;2023-03-22T08:06:07;10.65;;;6.55;;
11303;SDS011;5707;49.588;12.148;2023-03-22T08:08:33;6.75;;;6.25;;
11303;SDS011;5707;49.588;12.148;2023-03-22T08:11:00;6.80;;;6.20;;
11303;SDS011;5707;49.588;12.148;2023-03-22T08:13:26;7.22;;;6.75;;
11303;SDS011;5707;49.588;12.148;2023-03-22T08:15:52;6.78;;;6.28;;
11303;SDS011;5707;49.588;12.148;2023-03-22T08:18:18;6.68;;;6.20;;
11303;SDS011;5707;49.588;12.148;2023-03-22T08:20:43;6.43;;;5.90;;
11303;SDS011;5707;49.588;12.148;2023-03-22T08:23:09;6.53;;;5.97;;
11303;SDS011;5707;49.588;12.148;2023-03-22T08:25:40;6.05;;;5.65;;
11303;SDS011;5707;49.588;12.148;2023-03-22T08:28:06;6.80;;;6.10;;
11303;SDS011;5707;49.588;12.148;2023-03-22T08:30:32;5.88;;;5.38;;
11303;SDS011;5707;49.588;12.148;2023-03-22T08:32:58;6.60;;;6.03;;
11303;SDS011;5707;49.588;12.148;2023-03-22T08:35:23;5.90;;;5.45;;
11303;SDS011;5707;49.588;12.148;2023-03-22T08:37:52;4.95;;;4.55;;
11303;SDS011;5707;49.588;12.148;2023-03-22T08:40:18;5.18;;;4.78;;
11303;SDS011;5707;49.588;12.148;2023-03-22T08:42:44;4.75;;;4.45;;
11303;SDS011;5707;49.588;12.148;2023-03-22T08:45:09;4.90;;;4.50;;
11303;SDS011;5707;49.588;12.148;2023-03-22T08:47:35;4.47;;;4.18;;
11303;SDS011;5707;49.588;12.148;2023-03-22T08:50:01;5.40;;;4.95;;
11303;SDS011;5707;49.588;12.148;2023-03-22T08:52:26;5.68;;;5.25;;
11303;SDS011;5707;49.588;12.148;2023-03-22T08:54:52;5.28;;;4.78;;
11303;SDS011;5707;49.588;12.148;2023-03-22T08:57:18;4.45;;;4.05;;
11303;SDS011;5707;49.588;12.148;2023-03-22T08:59:46;4.10;;;3.35;;
11303;SDS011;5707;49.588;12.148;2023-03-22T09:02:11;4.13;;;3.83;;
11303;SDS011;5707;49.588;12.148;2023-03-22T09:04:37;7.75;;;3.67;;
11303;SDS011;5707;49.588;12.148;2023-03-22T09:07:02;3.90;;;3.60;;
11303;SDS011;5707;49.588;12.148;2023-03-22T09:09:28;5.60;;;3.80;;
11303;SDS011;5707;49.588;12.148;2023-03-22T09:11:54;5.07;;;3.22;;
11303;SDS011;5707;49.588;12.148;2023-03-22T09:14:20;3.33;;;2.95;;
11303;SDS011;5707;49.588;12.148;2023-03-22T09:16:46;2.55;;;2.35;;
11303;SDS011;5707;49.588;12.148;2023-03-22T09:19:11;3.00;;;2.63;;
11303;SDS011;5707;49.588;12.148;2023-03-22T09:21:37;4.68;;;2.47;;
11303;SDS011;5707;49.588;12.148;2023-03-22T09:24:02;2.38;;;2.15;;
11303;SDS011;5707;49.588;12.148;2023-03-22T09:26:28;2.35;;;2.15;;
11303;SDS011;5707;49.588;12.148;2023-03-22T09:28:54;3.78;;;1.90;;
11303;SDS011;5707;49.588;12.148;2023-03-22T09:31:20;1.73;;;1.60;;
11303;SDS011;5707;49.588;12.148;2023-03-22T09:33:46;6.28;;;1.80;;
11303;SDS011;5707;49.588;12.148;2023-03-22T09:36:11;3.13;;;1.80;;
11303;SDS011;5707;49.588;12.148;2023-03-22T09:38:37;4.40;;;1.85;;
11303;SDS011;5707;49.588;12.148;2023-03-22T09:41:05;3.67;;;2.30;;
11303;SDS011;5707;49.588;12.148;2023-03-22T09:43:40;2.30;;;2.00;;
11303;SDS011;5707;49.588;12.148;2023-03-22T09:46:12;2.83;;;2.50;;
11303;SDS011;5707;49.588;12.148;2023-03-22T09:48:41;1.85;;;1.75;;
11303;SDS011;5707;49.588;12.148;2023-03-22T09:54:15;2.20;;;1.50;;
11303;SDS011;5707;49.588;12.148;2023-03-22T09:56:49;2.13;;;1.90;;
11303;SDS011;5707;49.588;12.148;2023-03-22T09:59:43;1.67;;;1.58;;
11303;SDS011;5707;49.588;12.148;2023-03-22T10:10:44;1.50;;;1.40;;
11303;SDS011;5707;49.588;12.148;2023-03-22T10:13:12;2.25;;;1.30;;
11303;SDS011;5707;49.588;12.148;2023-03-22T10:15:41;1.70;;;1.30;;
11303;SDS011;5707;49.588;12.148;2023-03-22T10:18:08;1.65;;;1.55;;
11303;SDS011;5707;49.588;12.148;2023-03-22T10:20:45;1.60;;;1.50;;
11303;SDS011;5707;49.588;12.148;2023-03-22T10:23:17;2.17;;;1.77;;
11303;SDS011;5707;49.588;12.148;2023-03-22T10:25:48;1.95;;;1.40;;
11303;SDS011;5707;49.588;12.148;2023-03-22T10:28:19;1.25;;;1.15;;
11303;SDS011;5707;49.588;12.148;2023-03-22T10:30:54;2.03;;;1.65;;
11303;SDS011;5707;49.588;12.148;2023-03-22T10:33:37;3.92;;;2.20;;
11303;SDS011;5707;49.588;12.148;2023-03-22T10:36:14;3.25;;;1.60;;
11303;SDS011;5707;49.588;12.148;2023-03-22T10:38:45;2.40;;;1.25;;
11303;SDS011;5707;49.588;12.148;2023-03-22T10:41:14;0.98;;;0.90;;
11303;SDS011;5707;49.588;12.148;2023-03-22T10:43:42;2.85;;;0.85;;
11303;SDS011;5707;49.588;12.148;2023-03-22T10:46:19;1.15;;;0.85;;
11303;SDS011;5707;49.588;12.148;2023-03-22T10:48:48;0.95;;;0.93;;
11303;SDS011;5707;49.588;12.148;2023-03-22T10:51:28;0.65;;;0.65;;
11303;SDS011;5707;49.588;12.148;2023-03-22T10:53:56;1.15;;;0.82;;
11303;SDS011;5707;49.588;12.148;2023-03-22T10:56:25;0.90;;;0.90;;
11303;SDS011;5707;49.588;12.148;2023-03-22T10:58:50;1.35;;;0.70;;
11303;SDS011;5707;49.588;12.148;2023-03-22T11:03:56;1.90;;;0.70;;
11303;SDS011;5707;49.588;12.148;2023-03-22T11:06:33;0.70;;;0.70;;
11303;SDS011;5707;49.588;12.148;2023-03-22T11:09:22;1.13;;;0.85;;
11303;SDS011;5707;49.588;12.148;2023-03-22T11:17:00;3.08;;;0.85;;
11303;SDS011;5707;49.588;12.148;2023-03-22T11:19:36;1.13;;;0.90;;
11303;SDS011;5707;49.588;12.148;2023-03-22T11:22:15;0.73;;;0.73;;
11303;SDS011;5707;49.588;12.148;2023-03-22T11:25:00;0.95;;;0.80;;
11303;SDS011;5707;49.588;12.148;2023-03-22T11:27:30;0.80;;;0.70;;
11303;SDS011;5707;49.588;12.148;2023-03-22T11:29:58;1.00;;;0.70;;
11303;SDS011;5707;49.588;12.148;2023-03-22T11:35:31;0.50;;;0.50;;
11303;SDS011;5707;49.588;12.148;2023-03-22T11:38:00;1.90;;;0.98;;
11303;SDS011;5707;49.588;12.148;2023-03-22T11:40:34;0.90;;;0.90;;
11303;SDS011;5707;49.588;12.148;2023-03-22T11:45:41;0.82;;;0.82;;
11303;SDS011;5707;49.588;12.148;2023-03-22T11:48:27;1.00;;;0.80;;
11303;SDS011;5707;49.588;12.148;2023-03-22T11:50:55;1.30;;;1.10;;
11303;SDS011;5707;49.588;12.148;2023-03-22T11:53:28;0.80;;;0.80;;
11303;SDS011;5707;49.588;12.148;2023-03-22T11:55:58;1.38;;;1.02;;
11303;SDS011;5707;49.588;12.148;2023-03-22T11:58:42;1.13;;;1.00;;
11303;SDS011;5707;49.588;12.148;2023-03-22T12:01:18;1.73;;;1.13;;
11303;SDS011;5707;49.588;12.148;2023-03-22T12:03:53;0.80;;;0.80;;
11303;SDS011;5707;49.588;12.148;2023-03-22T12:06:21;0.98;;;0.80;;
11303;SDS011;5707;49.588;12.148;2023-03-22T12:08:52;0.70;;;0.70;;
11303;SDS011;5707;49.588;12.148;2023-03-22T12:11:37;2.30;;;0.70;;
11303;SDS011;5707;49.588;12.148;2023-03-22T12:14:07;2.05;;;0.80;;
11303;SDS011;5707;49.588;12.148;2023-03-22T12:16:52;1.13;;;0.77;;
11303;SDS011;5707;49.588;12.148;2023-03-22T12:19:37;3.35;;;0.98;;
11303;SDS011;5707;49.588;12.148;2023-03-22T12:22:08;0.88;;;0.70;;
11303;SDS011;5707;49.588;12.148;2023-03-22T12:24:40;2.38;;;1.00;;
11303;SDS011;5707;49.588;12.148;2023-03-22T12:27:14;1.10;;;0.90;;
11303;SDS011;5707;49.588;12.148;2023-03-22T12:29:44;1.33;;;1.23;;
11303;SDS011;5707;49.588;12.148;2023-03-22T12:32:35;0.85;;;0.73;;
11303;SDS011;5707;49.588;12.148;2023-03-22T12:35:06;0.73;;;0.70;;
11303;SDS011;5707;49.588;12.148;2023-03-22T12:37:36;0.77;;;0.77;;
11303;SDS011;5707;49.588;12.148;2023-03-22T12:40:48;1.58;;;0.90;;
11303;SDS011;5707;49.588;12.148;2023-03-22T12:45:49;0.70;;;0.70;;
11303;SDS011;5707;49.588;12.148;2023-03-22T12:51:04;2.30;;;0.85;;
11303;SDS011;5707;49.588;12.148;2023-03-22T12:53:36;0.70;;;0.55;;
11303;SDS011;5707;49.588;12.148;2023-03-22T12:56:08;0.68;;;0.68;;
11303;SDS011;5707;49.588;12.148;2023-03-22T12:58:58;1.60;;;0.93;;
11303;SDS011;5707;49.588;12.148;2023-03-22T13:01:36;1.10;;;0.70;;
11303;SDS011;5707;49.588;12.148;2023-03-22T13:09:18;1.25;;;0.93;;
11303;SDS011;5707;49.588;12.148;2023-03-22T13:17:31;0.60;;;0.60;;
11303;SDS011;5707;49.588;12.148;2023-03-22T13:32:59;1.08;;;0.57;;
11303;SDS011;5707;49.588;12.148;2023-03-22T13:38:19;0.73;;;0.60;;
11303;SDS011;5707;49.588;12.148;2023-03-22T13:40:57;1.35;;;0.60;;
11303;SDS011;5707;49.588;12.148;2023-03-22T13:43:53;0.50;;;0.50;;
11303;SDS011;5707;49.588;12.148;2023-03-22T13:53:40;1.60;;;0.70;;
11303;SDS011;5707;49.588;12.148;2023-03-22T13:56:11;0.85;;;0.60;;
11303;SDS011;5707;49.588;12.148;2023-03-22T13:58:52;0.60;;;0.60;;
11303;SDS011;5707;49.588;12.148;2023-03-22T14:03:56;0.68;;;0.60;;
11303;SDS011;5707;49.588;12.148;2023-03-22T14:06:34;1.52;;;0.85;;
11303;SDS011;5707;49.588;12.148;2023-03-22T14:09:13;1.70;;;0.60;;
11303;SDS011;5707;49.588;12.148;2023-03-22T14:12:31;0.63;;;0.55;;
11303;SDS011;5707;49.588;12.148;2023-03-22T14:14:56;0.70;;;0.70;;
11303;SDS011;5707;49.588;12.148;2023-03-22T14:17:33;0.57;;;0.50;;
11303;SDS011;5707;49.588;12.148;2023-03-22T14:20:06;1.05;;;0.77;;
11303;SDS011;5707;49.588;12.148;2023-03-22T14:22:39;0.80;;;0.60;;
11303;SDS011;5707;49.588;12.148;2023-03-22T14:25:12;0.70;;;0.70;;
11303;SDS011;5707;49.588;12.148;2023-03-22T14:27:42;3.50;;;0.70;;
11303;SDS011;5707;49.588;12.148;2023-03-22T14:30:18;2.33;;;0.80;;
11303;SDS011;5707;49.588;12.148;2023-03-22T14:33:04;0.75;;;0.60;;
11303;SDS011;5707;49.588;12.148;2023-03-22T14:35:36;0.70;;;0.70;;
11303;SDS011;5707;49.588;12.148;2023-03-22T14:38:05;0.85;;;0.55;;
11303;SDS011;5707;49.588;12.148;2023-03-22T14:40:37;1.02;;;0.60;;
11303;SDS011;5707;49.588;12.148;2023-03-22T14:45:46;0.60;;;0.60;;
11303;SDS011;5707;49.588;12.148;2023-03-22T14:48:15;3.70;;;0.55;;
11303;SDS011;5707;49.588;12.148;2023-03-22T14:50:47;1.15;;;0.63;;
11303;SDS011;5707;49.588;12.148;2023-03-22T14:53:15;1.48;;;0.60;;
11303;SDS011;5707;49.588;12.148;2023-03-22T14:55:46;0.80;;;0.38;;
11303;SDS011;5707;49.588;12.148;2023-03-22T14:58:13;0.40;;;0.40;;
11303;SDS011;5707;49.588;12.148;2023-03-22T15:00:40;0.80;;;0.47;;
11303;SDS011;5707;49.588;12.148;2023-03-22T15:03:08;1.10;;;0.57;;
11303;SDS011;5707;49.588;12.148;2023-03-22T15:05:47;0.40;;;0.40;;
11303;SDS011;5707;49.588;12.148;2023-03-22T15:10:41;0.80;;;0.40;;
11303;SDS011;5707;49.588;12.148;2023-03-22T15:13:08;1.95;;;0.47;;
11303;SDS011;5707;49.588;12.148;2023-03-22T15:15:36;2.78;;;0.40;;
11303;SDS011;5707;49.588;12.148;2023-03-22T15:18:05;0.40;;;0.30;;
11303;SDS011;5707;49.588;12.148;2023-03-22T15:20:35;0.60;;;0.60;;
11303;SDS011;5707;49.588;12.148;2023-03-22T15:23:08;0.93;;;0.38;;
11303;SDS011;5707;49.588;12.148;2023-03-22T15:25:39;1.38;;;0.40;;
11303;SDS011;5707;49.588;12.148;2023-03-22T15:28:11;0.32;;;0.32;;
11303;SDS011;5707;49.588;12.148;2023-03-22T15:30:44;1.80;;;0.50;;
11303;SDS011;5707;49.588;12.148;2023-03-22T15:33:24;0.52;;;0.50;;
11303;SDS011;5707;49.588;12.148;2023-03-22T15:36:02;1.27;;;0.30;;
11303;SDS011;5707;49.588;12.148;2023-03-22T15:38:30;1.33;;;0.50;;
11303;SDS011;5707;49.588;12.148;2023-03-22T15:41:03;0.55;;;0.55;;
11303;SDS011;5707;49.588;12.148;2023-03-22T15:44:04;0.60;;;0.60;;
11303;SDS011;5707;49.588;12.148;2023-03-22T15:46:51;2.00;;;1.80;;
11303;SDS011;5707;49.588;12.148;2023-03-22T15:49:32;5.00;;;2.30;;
11303;SDS011;5707;49.588;12.148;2023-03-22T15:52:45;1.30;;;1.20;;
11303;SDS011;5707;49.588;12.148;2023-03-22T15:59:46;1.05;;;0.60;;
11303;SDS011;5707;49.588;12.148;2023-03-22T16:02:22;0.57;;;0.57;;
11303;SDS011;5707;49.588;12.148;2023-03-22T16:04:51;1.95;;;1.08;;
11303;SDS011;5707;49.588;12.148;2023-03-22T16:07:19;0.57;;;0.50;;
11303;SDS011;5707;49.588;12.148;2023-03-22T16:09:47;0.57;;;0.57;;
11303;SDS011;5707;49.588;12.148;2023-03-22T16:12:13;0.45;;;0.45;;
11303;SDS011;5707;49.588;12.148;2023-03-22T16:17:15;0.25;;;0.25;;
11303;SDS011;5707;49.588;12.148;2023-03-22T16:19:47;0.35;;;0.30;;
11303;SDS011;5707;49.588;12.148;2023-03-22T16:22:14;1.90;;;0.70;;
11303;SDS011;5707;49.588;12.148;2023-03-22T16:24:41;0.30;;;0.30;;
11303;SDS011;5707;49.588;12.148;2023-03-22T16:27:12;0.35;;;0.30;;
11303;SDS011;5707;49.588;12.148;2023-03-22T16:29:41;0.30;;;0.30;;
11303;SDS011;5707;49.588;12.148;2023-03-22T16:32:14;1.15;;;0.30;;
11303;SDS011;5707;49.588;12.148;2023-03-22T16:34:50;0.80;;;0.70;;
11303;SDS011;5707;49.588;12.148;2023-03-22T16:37:23;1.00;;;1.00;;
11303;SDS011;5707;49.588;12.148;2023-03-22T16:39:49;2.33;;;1.85;;
11303;SDS011;5707;49.588;12.148;2023-03-22T16:42:17;1.77;;;1.67;;
11303;SDS011;5707;49.588;12.148;2023-03-22T16:44:44;1.27;;;1.23;;
11303;SDS011;5707;49.588;12.148;2023-03-22T16:47:12;2.53;;;2.40;;
11303;SDS011;5707;49.588;12.148;2023-03-22T16:49:39;1.77;;;1.67;;
11303;SDS011;5707;49.588;12.148;2023-03-22T16:52:05;1.98;;;1.35;;
11303;SDS011;5707;49.588;12.148;2023-03-22T16:54:31;0.82;;;0.70;;
11303;SDS011;5707;49.588;12.148;2023-03-22T16:56:58;1.02;;;0.60;;
11303;SDS011;5707;49.588;12.148;2023-03-22T16:59:23;0.60;;;0.60;;
11303;SDS011;5707;49.588;12.148;2023-03-22T17:01:49;2.50;;;0.35;;
11303;SDS011;5707;49.588;12.148;2023-03-22T17:04:16;0.88;;;0.40;;
11303;SDS011;5707;49.588;12.148;2023-03-22T17:06:41;0.50;;;0.45;;